Time;durP1;ratioP1;P1;durP2;ratioP2;P2;SDS_P1;SDS_P2;PMS_P1;PMS_P2;Temp;Humidity;BMP_temperature;BMP_pressure;BME280_temperature;BME280_humidity;BME280_pressure;Samples;Min_cycle;Max_cycle;Signal;HPM_P1;HPM_P2
2022/09/06 00:00:15;;;;;;;1.50;1.40;;;;;;;15.88;100.00;101695.34;5096707;28;20032;-76
2022/09/06 00:02:42;;;;;;;3.60;1.70;;;;;;;15.91;100.00;101703.09;5096892;28;20024;-76
2022/09/06 00:05:08;;;;;;;2.65;1.63;;;;;;;15.91;100.00;101704.94;5078304;28;20138;-75
2022/09/06 00:07:34;;;;;;;2.08;1.60;;;;;;;15.91;100.00;101713.00;5078865;28;20401;-76
2022/09/06 00:10:00;;;;;;;1.63;1.40;;;;;;;15.91;100.00;101710.31;5078016;28;20075;-76
2022/09/06 00:12:26;;;;;;;2.72;1.63;;;;;;;15.90;100.00;101722.91;5078603;28;20051;-75
2022/09/06 00:14:51;;;;;;;2.22;1.77;;;;;;;15.91;100.00;101737.97;5096267;28;20460;-76
2022/09/06 00:17:17;;;;;;;8.07;1.60;;;;;;;15.91;100.00;101747.88;5096547;28;20024;-76
2022/09/06 00:19:42;;;;;;;1.80;1.70;;;;;;;15.94;100.00;101752.94;5078484;28;20439;-75
2022/09/06 00:22:08;;;;;;;1.63;1.33;;;;;;;15.96;100.00;101751.81;5078554;28;20028;-77
2022/09/06 00:24:35;;;;;;;3.33;1.70;;;;;;;15.97;100.00;101744.59;5095967;28;20027;-76
2022/09/06 00:27:01;;;;;;;2.15;1.77;;;;;;;15.95;100.00;101744.75;5095687;28;20357;-76
2022/09/06 00:29:26;;;;;;;3.47;2.10;;;;;;;15.93;100.00;101733.31;5095992;28;20127;-75
2022/09/06 00:31:52;;;;;;;2.70;1.70;;;;;;;15.93;100.00;101730.66;5095884;28;20388;-76
2022/09/06 00:34:17;;;;;;;4.43;1.70;;;;;;;15.94;100.00;101732.31;5095965;28;20020;-79
2022/09/06 00:36:42;;;;;;;1.98;1.80;;;;;;;15.93;100.00;101730.66;5095647;28;20040;-75
2022/09/06 00:39:08;;;;;;;3.05;1.75;;;;;;;15.93;100.00;101719.03;5061156;28;20348;-76
2022/09/06 00:41:33;;;;;;;2.95;1.80;;;;;;;15.93;100.00;101719.03;5095766;28;20032;-76
2022/09/06 00:43:59;;;;;;;3.67;1.98;;;;;;;15.90;100.00;101712.16;5095859;28;20028;-75
2022/09/06 00:46:27;;;;;;;3.20;1.80;;;;;;;15.91;100.00;101713.84;5095633;28;20032;-77
2022/09/06 00:49:00;;;;;;;2.00;1.85;;;;;;;15.90;100.00;101714.84;5095922;28;20031;-76
2022/09/06 00:51:28;;;;;;;2.13;1.92;;;;;;;15.90;100.00;101700.56;5095583;28;20028;-75
2022/09/06 00:53:54;;;;;;;2.63;1.90;;;;;;;15.91;100.00;101697.72;5095309;28;20027;-76
2022/09/06 00:56:20;;;;;;;8.88;2.05;;;;;;;15.92;100.00;101696.75;5095600;28;20043;-76
2022/09/06 00:58:47;;;;;;;8.73;2.00;;;;;;;15.94;100.00;101683.16;5095907;28;20043;-76
2022/09/06 01:01:13;;;;;;;4.18;1.85;;;;;;;15.94;100.00;101684.00;5095137;28;20130;-75
2022/09/06 01:03:38;;;;;;;2.40;1.90;;;;;;;15.95;100.00;101677.66;5095763;28;20115;-75
2022/09/06 01:06:19;;;;;;;5.35;2.28;;;;;;;15.96;100.00;101671.28;5076921;28;20464;-75
2022/09/06 01:08:57;;;;;;;5.10;1.80;;;;;;;15.94;100.00;101651.81;5095466;28;20471;-76
2022/09/06 01:11:47;;;;;;;2.10;1.90;;;;;;;15.91;100.00;101648.59;5095500;28;20066;-76
2022/09/06 01:14:43;;;;;;;1.70;1.60;;;;;;;15.89;100.00;101647.91;5095270;28;20058;-75
2022/09/06 01:17:19;;;;;;;2.58;1.70;;;;;;;15.82;100.00;101634.25;5094850;28;20075;-76
2022/09/06 01:20:03;;;;;;;3.67;2.05;;;;;;;15.78;100.00;101631.06;5094737;28;20032;-76
2022/09/06 01:22:28;;;;;;;2.28;1.85;;;;;;;15.71;100.00;101616.53;5094957;28;20460;-75
2022/09/06 01:25:09;;;;;;;2.58;1.80;;;;;;;15.65;100.00;101617.16;5095164;28;20107;-75
2022/09/06 01:27:55;;;;;;;3.17;1.75;;;;;;;15.57;100.00;101619.75;5094691;28;20451;-75
2022/09/06 01:30:21;;;;;;;1.95;1.77;;;;;;;15.47;100.00;101617.16;5095140;28;20036;-75
2022/09/06 01:32:50;;;;;;;2.08;1.88;;;;;;;15.40;100.00;101616.06;5094911;28;20036;-76
2022/09/06 01:35:35;;;;;;;2.75;1.90;;;;;;;15.33;100.00;101605.94;5094709;28;20090;-75
2022/09/06 01:38:02;;;;;;;2.25;2.00;;;;;;;15.29;100.00;101603.72;5094918;28;20123;-75
2022/09/06 01:40:27;;;;;;;3.88;2.40;;;;;;;15.25;100.00;101605.03;5094222;28;20043;-76
2022/09/06 01:42:55;;;;;;;3.03;2.10;;;;;;;15.17;100.00;101605.78;5093583;28;20029;-77
2022/09/06 01:45:34;;;;;;;4.10;2.05;;;;;;;15.11;100.00;101607.22;5094810;28;20142;-77
2022/09/06 01:48:13;;;;;;;2.30;2.10;;;;;;;15.08;100.00;101599.47;5095150;28;20039;-77
2022/09/06 01:50:51;;;;;;;2.28;2.00;;;;;;;15.02;100.00;101605.44;5094754;28;20107;-77
2022/09/06 01:53:39;;;;;;;2.30;2.10;;;;;;;14.95;100.00;101605.19;5094704;28;20032;-77
2022/09/06 01:56:20;;;;;;;2.83;2.17;;;;;;;14.87;100.00;101604.22;5094899;28;20054;-77
2022/09/06 01:59:17;;;;;;;2.17;1.93;;;;;;;14.79;100.00;101605.84;5094282;28;20109;-78
2022/09/06 02:01:55;;;;;;;3.72;2.50;;;;;;;14.72;100.00;101602.06;5088298;28;20460;-77
2022/09/06 02:04:45;;;;;;;2.53;2.22;;;;;;;14.69;100.00;101602.34;5076543;28;20084;-75
2022/09/06 02:07:33;;;;;;;2.90;2.47;;;;;;;14.66;100.00;101593.75;5094799;28;20103;-76
2022/09/06 02:10:06;;;;;;;3.00;2.55;;;;;;;14.65;100.00;101594.78;5094157;28;20023;-75
2022/09/06 02:12:35;;;;;;;2.50;2.30;;;;;;;14.59;100.00;101596.16;5094223;28;20058;-76
2022/09/06 02:15:10;;;;;;;2.85;2.38;;;;;;;14.55;100.00;101598.28;5093641;28;20444;-75
2022/09/06 02:17:40;;;;;;;6.75;3.10;;;;;;;14.53;100.00;101596.75;5076399;28;20031;-76
2022/09/06 02:20:15;;;;;;;3.88;2.97;;;;;;;14.49;100.00;101593.50;5093756;28;20044;-76
2022/09/06 02:22:44;;;;;;;3.03;2.67;;;;;;;14.46;100.00;101607.19;5094057;28;20364;-75
2022/09/06 02:25:19;;;;;;;3.60;3.05;;;;;;;14.45;100.00;101601.00;5093815;28;20035;-74
2022/09/06 02:27:45;;;;;;;3.60;3.03;;;;;;;14.46;100.00;101605.38;5093552;28;20452;-75
2022/09/06 02:30:10;;;;;;;5.50;3.63;;;;;;;14.49;100.00;101603.38;5093949;28;20028;-75
2022/09/06 02:32:41;;;;;;;4.15;3.72;;;;;;;14.52;100.00;101605.78;5075469;28;20043;-75
2022/09/06 02:35:13;;;;;;;6.07;4.18;;;;;;;14.51;100.00;101609.44;5093573;28;20119;-77
2022/09/06 02:37:38;;;;;;;;;;;;;;;14.52;100.00;101616.47;5094032;28;20035;-75
2022/09/06 02:40:04;;;;;;;4.22;3.50;;;;;;;14.53;100.00;101626.22;5075665;28;19912;-78
2022/09/06 02:42:30;;;;;;;7.25;3.20;;;;;;;14.54;100.00;101625.19;5094047;28;20031;-77
2022/09/06 02:44:55;;;;;;;5.72;3.90;;;;;;;14.59;100.00;101639.00;5093723;28;20030;-75
2022/09/06 02:47:20;;;;;;;6.28;4.18;;;;;;;14.65;100.00;101632.25;5093443;28;20452;-74
2022/09/06 02:49:46;;;;;;;5.03;4.10;;;;;;;14.71;100.00;101632.50;5093339;28;20032;-76
2022/09/06 02:52:11;;;;;;;5.30;4.00;;;;;;;14.74;100.00;101629.53;5093289;28;20051;-76
2022/09/06 02:54:36;;;;;;;5.97;4.28;;;;;;;14.76;100.00;101626.69;5093113;28;20383;-78
2022/09/06 02:57:02;;;;;;;5.60;4.47;;;;;;;14.76;100.00;101627.56;5093685;28;20036;-76
2022/09/06 02:59:28;;;;;;;7.80;4.63;;;;;;;14.79;100.00;101629.09;5093744;28;20031;-76
2022/09/06 03:01:53;;;;;;;7.65;5.18;;;;;;;14.79;100.00;101632.63;5093214;28;20456;-76
2022/09/06 03:04:18;;;;;;;9.23;5.07;;;;;;;14.83;100.00;101637.69;5093170;28;20032;-76
2022/09/06 03:06:44;;;;;;;6.00;4.80;;;;;;;14.81;100.00;101638.69;5075156;28;20115;-77
2022/09/06 03:09:09;;;;;;;7.28;4.53;;;;;;;14.83;100.00;101632.34;5093147;28;20032;-76
2022/09/06 03:11:35;;;;;;;7.28;4.78;;;;;;;14.85;100.00;101638.38;5093130;28;20032;-75
2022/09/06 03:14:01;;;;;;;5.72;5.10;;;;;;;14.85;100.00;101633.84;5093318;28;20032;-76
2022/09/06 03:16:26;;;;;;;9.38;5.57;;;;;;;14.84;100.00;101636.69;5093543;28;20099;-76
2022/09/06 03:18:51;;;;;;;8.70;5.20;;;;;;;14.83;100.00;101649.25;5093023;28;20032;-76
2022/09/06 03:21:17;;;;;;;6.50;5.30;;;;;;;14.83;100.00;101651.09;5093757;28;20063;-76
2022/09/06 03:23:42;;;;;;;9.02;6.00;;;;;;;14.84;100.00;101666.16;5092944;28;20043;-76
2022/09/06 03:26:07;;;;;;;7.50;5.60;;;;;;;14.86;100.00;101665.03;5092625;28;20035;-76
2022/09/06 03:28:33;;;;;;;10.43;5.25;;;;;;;14.87;100.00;101679.25;5075019;28;20055;-77
2022/09/06 03:30:58;;;;;;;8.80;6.07;;;;;;;14.85;100.00;101674.03;5074583;28;20387;-76
2022/09/06 03:33:24;;;;;;;11.50;5.75;;;;;;;14.85;100.00;101682.06;5092677;28;20036;-76
2022/09/06 03:35:55;;;;;;;9.45;5.53;;;;;;;14.87;100.00;101681.94;5074696;28;20028;-76
2022/09/06 03:38:22;;;;;;;7.63;5.40;;;;;;;14.87;100.00;101669.41;5092540;28;20392;-77
2022/09/06 03:40:48;;;;;;;8.98;5.80;;;;;;;14.89;100.00;101672.75;5074801;28;20047;-76
2022/09/06 03:43:15;;;;;;;7.72;5.88;;;;;;;14.91;100.00;101676.16;5093030;28;20119;-76
2022/09/06 03:45:47;;;;;;;9.73;5.97;;;;;;;14.93;100.00;101690.25;5092681;28;20080;-76
2022/09/06 03:48:14;;;;;;;9.18;6.63;;;;;;;14.95;100.00;101682.06;5092909;28;20038;-76
2022/09/06 03:50:51;;;;;;;12.07;6.60;;;;;;;14.98;100.00;101692.47;5092851;28;20115;-76
2022/09/06 03:53:17;;;;;;;11.50;6.60;;;;;;;15.02;100.00;101701.06;5093247;28;20059;-76
2022/09/06 03:55:47;;;;;;;9.07;5.80;;;;;;;15.06;100.00;101700.63;5092961;28;20036;-77
2022/09/06 03:58:14;;;;;;;9.15;6.57;;;;;;;15.12;100.00;101704.53;5093242;28;20067;-77
2022/09/06 04:00:40;;;;;;;9.48;6.28;;;;;;;15.14;100.00;101703.41;5074305;28;20097;-77
2022/09/06 04:03:05;;;;;;;9.45;5.80;;;;;;;15.19;100.00;101708.31;5092604;28;20024;-76
2022/09/06 04:05:31;;;;;;;8.32;5.70;;;;;;;15.22;100.00;101713.38;5093658;28;20119;-76
2022/09/06 04:07:56;;;;;;;5.78;5.13;;;;;;;15.24;100.00;101710.56;5096379;28;20114;-76
2022/09/06 04:10:21;;;;;;;7.60;5.25;;;;;;;15.20;100.00;101711.84;5096069;28;20043;-76
2022/09/06 04:12:47;;;;;;;8.30;5.47;;;;;;;15.16;100.00;101716.66;5096259;28;20047;-77
2022/09/06 04:15:12;;;;;;;8.90;5.75;;;;;;;15.11;100.00;101711.75;5096372;28;20036;-76
2022/09/06 04:17:38;;;;;;;9.57;5.03;;;;;;;15.06;100.00;101718.53;5096308;28;20032;-75
2022/09/06 04:20:04;;;;;;;9.07;5.82;;;;;;;15.02;100.00;101718.00;5096195;28;20052;-76
2022/09/06 04:22:29;;;;;;;7.07;5.47;;;;;;;15.00;100.00;101709.25;5078391;28;20028;-75
2022/09/06 04:24:55;;;;;;;8.75;5.82;;;;;;;14.99;100.00;101710.25;5077981;28;20372;-76
2022/09/06 04:27:20;;;;;;;8.70;5.88;;;;;;;14.98;100.00;101704.03;5096032;28;20111;-76
2022/09/06 04:29:45;;;;;;;8.07;5.43;;;;;;;14.99;100.00;101699.53;5096125;28;20035;-76
2022/09/06 04:32:11;;;;;;;9.35;6.13;;;;;;;14.99;100.00;101696.84;5095916;28;20032;-76
2022/09/06 04:34:36;;;;;;;14.13;6.05;;;;;;;15.01;100.00;101694.03;5096054;28;20043;-76
2022/09/06 04:37:02;;;;;;;13.38;6.40;;;;;;;15.03;100.00;101700.06;5077296;28;20036;-76
2022/09/06 04:39:27;;;;;;;10.88;5.80;;;;;;;15.04;100.00;101712.50;5077647;28;20059;-76
2022/09/06 04:41:52;;;;;;;7.35;5.97;;;;;;;15.06;100.00;101700.63;5060753;28;20032;-76
2022/09/06 04:44:17;;;;;;;9.32;6.68;;;;;;;15.09;100.00;101700.34;5096146;28;20030;-76
2022/09/06 04:46:43;;;;;;;12.57;6.55;;;;;;;15.11;100.00;101684.94;5095321;28;20120;-76
2022/09/06 04:49:09;;;;;;;11.07;6.78;;;;;;;15.12;100.00;101672.38;5095440;28;20106;-76
2022/09/06 04:51:36;;;;;;;10.38;6.70;;;;;;;15.12;100.00;101662.50;5095957;28;20028;-76
2022/09/06 04:54:01;;;;;;;8.32;6.55;;;;;;;15.11;100.00;101657.31;5095520;28;20032;-76
2022/09/06 04:56:26;;;;;;;12.55;6.57;;;;;;;15.06;100.00;101647.03;5095652;28;20123;-76
2022/09/06 04:58:54;;;;;;;9.15;5.82;;;;;;;15.01;100.00;101651.97;5077357;28;20028;-82
2022/09/06 05:01:19;;;;;;;9.20;6.10;;;;;;;14.92;100.00;101647.50;5095966;28;20028;-76
2022/09/06 05:03:45;;;;;;;7.15;5.55;;;;;;;14.85;100.00;101639.22;5096181;28;20082;-76
2022/09/06 05:06:22;;;;;;;10.60;7.22;;;;;;;14.79;100.00;101651.38;5095320;28;20506;-76
2022/09/06 05:08:48;;;;;;;8.20;5.82;;;;;;;14.74;100.00;101648.28;5095105;28;20467;-76
2022/09/06 05:11:13;;;;;;;9.05;6.65;;;;;;;14.70;100.00;101651.41;5095441;28;20036;-76
2022/09/06 05:13:39;;;;;;;9.60;6.85;;;;;;;14.66;100.00;101653.53;5095269;28;20093;-76
2022/09/06 05:16:07;;;;;;;10.55;7.22;;;;;;;14.62;100.00;101646.78;5094933;28;20043;-77
2022/09/06 05:18:33;;;;;;;10.48;7.00;;;;;;;14.59;100.00;101639.00;5095223;28;20107;-75
2022/09/06 05:20:58;;;;;;;9.88;8.18;;;;;;;14.56;100.00;101642.81;5095064;28;20139;-75
2022/09/06 05:23:25;;;;;;;15.02;9.60;;;;;;;14.57;100.00;101639.16;5095078;28;20107;-76
2022/09/06 05:25:51;;;;;;;14.52;9.20;;;;;;;14.59;100.00;101629.13;5095463;28;20360;-75
2022/09/06 05:28:16;;;;;;;15.70;10.00;;;;;;;14.62;100.00;101633.41;5094921;28;20136;-75
2022/09/06 05:30:42;;;;;;;13.00;9.48;;;;;;;14.63;100.00;101629.72;5076631;28;20531;-75
2022/09/06 05:33:08;;;;;;;13.98;9.23;;;;;;;14.63;100.00;101624.38;5094745;28;20102;-75
2022/09/06 05:35:34;;;;;;;15.23;10.27;;;;;;;14.65;100.00;101625.06;5094686;28;20027;-75
2022/09/06 05:37:59;;;;;;;20.92;11.23;;;;;;;14.67;100.00;101617.72;5095389;28;20114;-76
2022/09/06 05:40:25;;;;;;;24.98;11.63;;;;;;;14.71;100.00;101624.47;5095180;28;20050;-75
2022/09/06 05:42:50;;;;;;;19.10;11.15;;;;;;;14.71;100.00;101616.44;5094438;28;20032;-75
2022/09/06 05:45:16;;;;;;;16.45;11.40;;;;;;;14.71;100.00;101624.47;5094568;28;20210;-76
2022/09/06 05:47:41;;;;;;;13.95;10.52;;;;;;;14.71;100.00;101626.31;5094002;28;20384;-75
2022/09/06 05:50:07;;;;;;;16.70;10.77;;;;;;;14.70;100.00;101621.94;5094349;28;20399;-76
2022/09/06 05:52:33;;;;;;;16.65;11.10;;;;;;;14.72;100.00;101630.66;5094602;28;20031;-76
2022/09/06 05:55:00;;;;;;;17.08;11.02;;;;;;;14.72;100.00;101626.16;5076495;28;20028;-82
2022/09/06 05:57:25;;;;;;;15.77;11.18;;;;;;;14.73;100.00;101619.78;5094296;28;20031;-77
2022/09/06 05:59:52;;;;;;;18.08;11.80;;;;;;;14.75;100.00;101622.34;5093958;28;20455;-77
2022/09/06 06:02:19;;;;;;;20.15;12.35;;;;;;;14.80;100.00;101628.09;5094166;28;20040;-77
2022/09/06 06:04:44;;;;;;;20.95;13.30;;;;;;;14.83;100.00;101622.44;5094383;28;20028;-75
2022/09/06 06:07:10;;;;;;;19.98;13.38;;;;;;;14.90;100.00;101626.22;5075688;28;20376;-75
2022/09/06 06:09:35;;;;;;;24.27;12.90;;;;;;;14.91;100.00;101624.38;5094072;28;20028;-77
2022/09/06 06:12:01;;;;;;;20.00;13.25;;;;;;;14.93;100.00;101620.56;5094059;28;20032;-75
2022/09/06 06:14:26;;;;;;;17.17;12.45;;;;;;;14.93;100.00;101617.88;5093887;28;20035;-75
2022/09/06 06:16:51;;;;;;;21.63;11.98;;;;;;;14.97;100.00;101618.44;5094062;28;20032;-75
2022/09/06 06:19:17;;;;;;;21.27;12.68;;;;;;;14.97;100.00;101610.38;5093974;28;20039;-75
2022/09/06 06:21:42;;;;;;;21.08;14.80;;;;;;;15.02;100.00;101602.75;5094214;28;20040;-75
2022/09/06 06:24:07;;;;;;;23.60;14.23;;;;;;;15.06;100.00;101603.28;5093617;28;20028;-75
2022/09/06 06:26:35;;;;;;;26.80;15.25;;;;;;;15.09;100.00;101600.31;5093910;28;20380;-75
2022/09/06 06:29:04;;;;;;;23.45;14.48;;;;;;;15.16;100.00;101596.88;5093190;28;20028;-75
2022/09/06 06:31:31;;;;;;;23.08;14.98;;;;;;;15.22;100.00;101592.75;5093600;28;20058;-75
2022/09/06 06:33:57;;;;;;;24.50;15.50;;;;;;;15.30;100.00;101595.53;5093341;28;20425;-75
2022/09/06 06:36:25;;;;;;;26.20;16.30;;;;;;;15.37;100.00;101587.72;5093518;28;20036;-75
2022/09/06 06:38:53;;;;;;;24.15;15.10;;;;;;;15.46;100.00;101596.69;5093598;28;20028;-77
2022/09/06 06:41:22;;;;;;;23.63;15.20;;;;;;;15.54;100.00;101601.28;5093363;28;20550;-75
2022/09/06 06:43:53;;;;;;;26.15;15.45;;;;;;;15.62;100.00;101604.88;5093474;28;20039;-75
2022/09/06 06:46:19;;;;;;;20.67;13.77;;;;;;;15.71;100.00;101604.97;5093115;28;20032;-75
2022/09/06 06:48:45;;;;;;;22.63;13.70;;;;;;;15.83;100.00;101606.44;5093501;28;20269;-75
2022/09/06 06:51:14;;;;;;;17.83;12.75;;;;;;;15.93;100.00;101606.34;5075316;28;20028;-76
2022/09/06 06:53:39;;;;;;;17.45;12.32;;;;;;;16.03;100.00;101607.94;5075046;28;20039;-75
2022/09/06 06:56:25;;;;;;;20.27;12.45;;;;;;;16.18;100.00;101610.91;5093626;28;20028;-75
2022/09/06 06:58:53;;;;;;;17.60;10.93;;;;;;;16.32;100.00;101606.78;5093749;28;20024;-76
2022/09/06 07:01:20;;;;;;;22.10;10.65;;;;;;;16.46;100.00;101608.03;5093885;28;20028;-76
2022/09/06 07:03:45;;;;;;;12.65;8.30;;;;;;;16.57;100.00;101598.88;5075710;28;20077;-75
2022/09/06 07:06:12;;;;;;;11.07;7.85;;;;;;;16.68;100.00;101601.28;5093213;28;20040;-76
2022/09/06 07:08:38;;;;;;;9.38;7.80;;;;;;;16.87;100.00;101594.84;5093169;28;20036;-76
2022/09/06 07:11:08;;;;;;;9.80;7.40;;;;;;;17.08;100.00;101591.72;5093170;28;20028;-75
2022/09/06 07:13:34;;;;;;;12.85;7.30;;;;;;;17.28;100.00;101583.38;5093131;28;20056;-75
2022/09/06 07:16:07;;;;;;;9.95;6.65;;;;;;;17.48;100.00;101585.75;5093123;28;20055;-75
2022/09/06 07:18:32;;;;;;;10.60;6.85;;;;;;;17.58;100.00;101575.66;5093486;28;20032;-75
2022/09/06 07:20:58;;;;;;;14.40;6.45;;;;;;;17.62;100.00;101571.63;5074824;28;20050;-75
2022/09/06 07:23:24;;;;;;;7.97;6.38;;;;;;;17.67;100.00;101563.06;5092991;28;20421;-75
2022/09/06 07:25:49;;;;;;;10.20;6.30;;;;;;;17.68;100.00;101567.44;5093564;28;20089;-75
2022/09/06 07:28:15;;;;;;;11.27;6.90;;;;;;;17.72;100.00;101571.44;5093175;28;20039;-75
2022/09/06 07:30:41;;;;;;;10.27;6.85;;;;;;;17.77;100.00;101572.63;5093142;28;20062;-75
2022/09/06 07:33:06;;;;;;;12.73;7.07;;;;;;;17.79;100.00;101567.94;5093192;28;20032;-75
2022/09/06 07:35:32;;;;;;;8.60;6.53;;;;;;;17.77;100.00;101559.19;5092794;28;20070;-76
2022/09/06 07:38:00;;;;;;;10.43;6.60;;;;;;;17.79;100.00;101564.41;5075042;28;20478;-75
2022/09/06 07:40:28;;;;;;;11.15;7.10;;;;;;;17.84;100.00;101555.81;5094011;28;20032;-76
2022/09/06 07:42:59;;;;;;;12.80;7.60;;;;;;;17.92;100.00;101553.97;5097006;28;20028;-75
2022/09/06 07:45:25;;;;;;;9.35;6.90;;;;;;;18.04;100.00;101562.56;5097284;28;20514;-76
2022/09/06 07:48:00;;;;;;;8.45;6.65;;;;;;;18.23;100.00;101558.66;5096809;28;20028;-75
2022/09/06 07:50:27;;;;;;;11.65;7.40;;;;;;;18.36;100.00;101560.78;5096613;28;20456;-75
2022/09/06 07:52:52;;;;;;;17.30;6.80;;;;;;;18.51;100.00;101558.22;5078520;28;20063;-75
2022/09/06 07:55:18;;;;;;;10.70;6.80;;;;;;;18.67;100.00;101560.88;5096640;28;20060;-76
2022/09/06 07:57:43;;;;;;;9.07;6.20;;;;;;;19.00;100.00;101563.44;5096946;28;20119;-75
2022/09/06 08:00:10;;;;;;;9.35;6.30;;;;;;;19.19;100.00;101563.97;5096611;28;20036;-75
2022/09/06 08:02:35;;;;;;;7.63;5.75;;;;;;;19.40;100.00;101566.03;5096787;28;20052;-75
2022/09/06 08:05:01;;;;;;;13.68;6.38;;;;;;;19.52;100.00;101569.16;5096430;28;20503;-75
2022/09/06 08:07:26;;;;;;;9.15;5.93;;;;;;;19.65;100.00;101574.78;5096366;28;20039;-76
2022/09/06 08:09:51;;;;;;;10.45;5.32;;;;;;;20.17;100.00;101577.69;5096146;28;20031;-76
2022/09/06 08:12:17;;;;;;;8.77;5.82;;;;;;;20.18;100.00;101585.66;5078105;28;20042;-83
2022/09/06 08:14:43;;;;;;;7.72;5.00;;;;;;;20.22;100.00;101594.22;5096355;28;20089;-75
2022/09/06 08:17:08;;;;;;;7.38;4.72;;;;;;;20.39;100.00;101592.16;5096782;28;20040;-76
2022/09/06 08:19:34;;;;;;;8.00;4.93;;;;;;;20.51;100.00;101587.13;5095965;28;20039;-75
2022/09/06 08:21:59;;;;;;;7.35;5.13;;;;;;;20.24;100.00;101592.16;5095841;28;20075;-75
2022/09/06 08:24:24;;;;;;;7.38;5.25;;;;;;;19.92;100.00;101587.94;5096255;28;20077;-76
2022/09/06 08:26:50;;;;;;;8.85;5.50;;;;;;;19.76;100.00;101591.56;5078046;28;20052;-76
2022/09/06 08:29:16;;;;;;;14.40;5.13;;;;;;;19.87;100.00;101583.91;5096124;28;20074;-78
2022/09/06 08:31:43;;;;;;;6.78;4.85;;;;;;;20.18;100.00;101582.09;5096079;28;20072;-76
2022/09/06 08:34:11;;;;;;;8.23;4.82;;;;;;;20.53;100.00;101582.41;5096267;28;20028;-76
2022/09/06 08:36:37;;;;;;;5.65;4.78;;;;;;;20.93;100.00;101585.66;5095907;28;20086;-76
2022/09/06 08:39:04;;;;;;;5.13;4.55;;;;;;;21.27;100.00;101576.00;5095912;28;20383;-77
2022/09/06 08:41:43;;;;;;;8.32;4.72;;;;;;;21.59;100.00;101579.28;5095516;28;20032;-78
2022/09/06 08:44:16;;;;;;;7.78;4.63;;;;;;;21.84;97.48;101569.72;5077311;28;20032;-79
2022/09/06 08:46:49;;;;;;;9.40;4.20;;;;;;;22.22;96.24;101565.81;5095636;28;20111;-78
2022/09/06 08:49:15;;;;;;;9.23;4.35;;;;;;;22.49;86.31;101564.09;5078344;28;20024;-76
2022/09/06 08:51:52;;;;;;;5.90;3.65;;;;;;;22.80;85.10;101556.53;5095496;28;20039;-76
2022/09/06 08:54:27;;;;;;;8.45;3.60;;;;;;;23.26;80.74;101561.28;5095986;28;20107;-80
2022/09/06 08:57:05;;;;;;;9.50;4.20;;;;;;;23.93;75.34;101562.19;5095441;28;20036;-76
2022/09/06 08:59:37;;;;;;;7.45;3.95;;;;;;;24.90;72.63;101561.50;5096052;28;20074;-77
2022/09/06 09:02:12;;;;;;;4.95;3.70;;;;;;;26.23;65.75;101569.75;5095940;28;20020;-77
2022/09/06 09:04:54;;;;;;;4.93;3.83;;;;;;;26.85;60.31;101564.19;5095458;28;20035;-78
2022/09/06 09:07:42;;;;;;;8.65;4.00;;;;;;;28.01;56.01;101559.53;5095611;28;20031;-77
2022/09/06 09:10:14;;;;;;;6.55;4.40;;;;;;;28.74;56.33;101570.94;5077255;28;20440;-79
2022/09/06 09:12:45;;;;;;;6.55;3.67;;;;;;;29.40;53.19;101560.41;5095556;28;20047;-78
2022/09/06 09:15:12;;;;;;;;;;;;;;;29.53;50.18;101562.00;5096231;28;20039;-78
2022/09/06 09:17:37;;;;;;;8.40;4.57;;;;;;;28.72;50.81;101579.38;5095126;28;20394;-77
2022/09/06 09:20:04;;;;;;;7.50;4.40;;;;;;;28.51;52.91;101572.63;5076938;28;20052;-81
2022/09/06 09:22:29;;;;;;;8.40;4.57;;;;;;;28.77;52.97;101584.16;5095594;28;20036;-78
2022/09/06 09:24:58;;;;;;;14.00;5.10;;;;;;;27.97;54.16;101583.78;5076715;28;20039;-77
2022/09/06 09:27:26;;;;;;;6.07;4.97;;;;;;;27.87;53.52;101581.63;5095029;28;20024;-77
2022/09/06 09:29:54;;;;;;;9.30;4.88;;;;;;;27.93;55.78;101575.19;5095286;28;20084;-76
2022/09/06 09:32:36;;;;;;;7.95;4.95;;;;;;;27.79;53.58;101588.22;5095277;28;20140;-77
2022/09/06 09:35:26;;;;;;;7.78;4.90;;;;;;;26.34;59.02;101590.81;5095138;28;20081;-77
2022/09/06 09:38:09;;;;;;;7.00;5.25;;;;;;;26.09;62.12;101587.31;5094867;28;20443;-77
2022/09/06 09:40:40;;;;;;;9.43;5.53;;;;;;;25.93;62.29;101594.13;5095051;28;20028;-77
2022/09/06 09:43:16;;;;;;;8.20;5.15;;;;;;;26.09;61.89;101595.47;5095022;28;20036;-76
2022/09/06 09:45:43;;;;;;;6.13;4.65;;;;;;;25.79;64.10;101594.25;5094441;28;20115;-76
2022/09/06 09:48:34;;;;;;;10.00;5.20;;;;;;;25.58;64.55;101594.63;5094829;28;20464;-77
2022/09/06 09:51:23;;;;;;;6.65;4.50;;;;;;;25.25;63.45;101590.22;5095219;28;20376;-76
2022/09/06 09:54:00;;;;;;;7.22;4.57;;;;;;;24.83;65.63;101593.34;5095082;28;20460;-76
2022/09/06 09:56:36;;;;;;;9.57;4.28;;;;;;;26.14;64.66;101588.31;5094513;28;20114;-79
2022/09/06 09:59:06;;;;;;;8.70;5.05;;;;;;;28.14;53.42;101590.19;5094112;28;20528;-77
2022/09/06 10:01:32;;;;;;;7.63;4.32;;;;;;;29.32;49.81;101593.69;5094696;28;20034;-79
2022/09/06 10:04:10;;;;;;;4.95;4.10;;;;;;;30.18;45.99;101584.41;5093977;28;20522;-78
2022/09/06 10:06:37;;;;;;;8.68;4.47;;;;;;;30.86;47.42;101587.75;5094122;28;20035;-79
2022/09/06 10:09:30;;;;;;;7.82;4.38;;;;;;;31.36;45.30;101591.28;5094199;28;20032;-78
2022/09/06 10:11:57;;;;;;;9.32;4.47;;;;;;;31.09;43.00;101583.06;5094176;28;20028;-77
2022/09/06 10:14:28;;;;;;;7.78;4.10;;;;;;;31.36;43.40;101593.22;5093884;28;20038;-78
2022/09/06 10:16:53;;;;;;;6.93;4.25;;;;;;;31.53;44.51;101590.34;5093999;28;20032;-75
2022/09/06 10:19:44;;;;;;;9.88;4.05;;;;;;;31.15;43.64;101595.78;5093244;28;20059;-77
2022/09/06 10:22:24;;;;;;;;;;;;;;;30.72;42.50;101602.97;5084527;28;20052;-75
2022/09/06 10:25:05;;;;;;;6.20;4.55;;;;;;;30.68;43.03;101602.66;5093926;28;19912;-75
2022/09/06 10:27:32;;;;;;;5.47;3.97;;;;;;;31.08;42.86;101598.75;5093877;28;20031;-77
2022/09/06 10:30:01;;;;;;;7.68;4.15;;;;;;;31.54;43.84;101605.75;5093840;28;20039;-77
2022/09/06 10:32:36;;;;;;;8.17;4.57;;;;;;;31.39;42.44;101606.44;5094550;28;20024;-78
2022/09/06 10:35:13;;;;;;;8.82;4.53;;;;;;;31.23;42.45;101617.31;5094043;28;20309;-78
2022/09/06 10:38:02;;;;;;;8.00;5.07;;;;;;;30.67;43.57;101609.22;5093650;28;20043;-78
2022/09/06 10:40:58;;;;;;;7.32;4.90;;;;;;;29.23;45.73;101617.94;5093994;28;20115;-78
2022/09/06 10:43:32;;;;;;;8.63;4.93;;;;;;;28.38;50.45;101623.00;5093282;28;20040;-76
2022/09/06 10:46:02;;;;;;;10.80;5.70;;;;;;;27.78;54.05;101624.00;5076277;28;20028;-75
2022/09/06 10:48:44;;;;;;;10.55;5.32;;;;;;;27.13;54.66;101630.22;5093572;28;20047;-75
2022/09/06 10:51:42;;;;;;;9.30;5.07;;;;;;;26.67;60.62;101624.28;5093720;28;20032;-76
2022/09/06 10:54:09;;;;;;;14.73;5.65;;;;;;;27.24;56.11;101619.31;5093692;28;20027;-75
2022/09/06 10:56:42;;;;;;;10.52;5.35;;;;;;;28.63;54.97;101614.56;5075230;28;20507;-78
2022/09/06 10:59:19;;;;;;;8.80;4.82;;;;;;;29.99;49.83;101611.28;5093353;28;20032;-76
2022/09/06 11:01:57;;;;;;;10.68;4.88;;;;;;;30.72;46.83;101614.78;5094025;28;20087;-76
2022/09/06 11:04:37;;;;;;;8.55;4.50;;;;;;;30.72;46.15;101616.69;5093390;28;20540;-76
2022/09/06 11:07:23;;;;;;;11.97;3.73;;;;;;;30.12;44.15;101613.66;5093177;28;20071;-75
2022/09/06 11:10:07;;;;;;;7.55;4.30;;;;;;;29.41;47.07;101611.41;5093408;28;20036;-75
2022/09/06 11:12:32;;;;;;;5.43;3.72;;;;;;;29.49;48.15;101621.97;5093205;28;20118;-74
2022/09/06 11:15:02;;;;;;;5.70;3.50;;;;;;;30.07;45.85;101621.84;5092651;28;20070;-76
2022/09/06 11:17:31;;;;;;;8.15;3.25;;;;;;;30.25;46.25;101624.28;5093492;28;20039;-75
2022/09/06 11:20:34;;;;;;;8.02;3.55;;;;;;;30.10;45.33;101621.34;5093147;28;20024;-75
2022/09/06 11:23:08;;;;;;;5.20;2.97;;;;;;;29.79;46.37;101622.75;5090783;28;20040;-74
2022/09/06 11:25:46;;;;;;;6.80;2.92;;;;;;;30.03;46.82;101626.16;5093386;28;20032;-74
2022/09/06 11:28:22;;;;;;;6.75;2.70;;;;;;;30.32;41.68;101621.38;5092920;28;20036;-76